Time;durP1;ratioP1;P1;durP2;ratioP2;P2;SDS_P1;SDS_P2;PMS_P1;PMS_P2;Temp;Humidity;BMP_temperature;BMP_pressure;BME280_temperature;BME280_humidity;BME280_pressure;Samples;Min_cycle;Max_cycle;Signal;HPM_P1;HPM_P2
2021/04/27 00:02:17;;;;;;;6.67;4.40;;;10.60;44.10;;;;;;5004694;28;20542;-45
2021/04/27 00:04:44;;;;;;;3.47;3.17;;;10.60;44.10;;;;;;5004638;28;20488;-45
2021/04/27 00:07:11;;;;;;;6.00;2.90;;;10.50;44.20;;;;;;5002693;28;20467;-45
2021/04/27 00:09:37;;;;;;;5.10;3.40;;;10.50;44.30;;;;;;5020228;28;20488;-46
2021/04/27 00:12:05;;;;;;;5.90;3.17;;;10.50;44.40;;;;;;5006091;28;20456;-45
2021/04/27 00:14:32;;;;;;;3.27;2.97;;;10.40;44.50;;;;;;5005933;28;20460;-46
2021/04/27 00:16:59;;;;;;;4.20;2.93;;;10.40;44.40;;;;;;5007548;28;20483;-45
2021/04/27 00:19:25;;;;;;;3.43;3.10;;;10.40;44.70;;;;;;4991800;28;20467;-45
2021/04/27 00:21:52;;;;;;;3.40;3.10;;;10.40;44.30;;;;;;5004995;28;21738;-45
2021/04/27 00:24:18;;;;;;;4.30;3.00;;;10.40;44.10;;;;;;5005350;28;20468;-45
2021/04/27 00:26:44;;;;;;;5.93;3.23;;;10.30;44.30;;;;;;5005470;28;20563;-45
2021/04/27 00:29:10;;;;;;;4.33;3.20;;;10.30;44.50;;;;;;5006010;28;20541;-45
2021/04/27 00:31:37;;;;;;;3.77;3.40;;;10.30;44.80;;;;;;5010255;28;20495;-45
2021/04/27 00:34:03;;;;;;;4.60;2.90;;;10.30;44.80;;;;;;5009739;28;20969;-45
2021/04/27 00:36:30;;;;;;;3.23;2.93;;;10.20;44.90;;;;;;5005396;28;20783;-46
2021/04/27 00:38:57;;;;;;;3.00;2.80;;;10.20;44.90;;;;;;5004123;28;20472;-45
2021/04/27 00:41:24;;;;;;;4.17;2.90;;;10.20;45.00;;;;;;5010241;28;20464;-45
2021/04/27 00:43:50;;;;;;;3.33;2.87;;;10.20;45.00;;;;;;5005254;28;20984;-45
2021/04/27 00:46:18;;;;;;;3.50;3.20;;;10.10;45.00;;;;;;5005807;28;20460;-45
2021/04/27 00:48:44;;;;;;;3.30;3.00;;;10.10;45.10;;;;;;5006659;28;20462;-45
2021/04/27 00:51:11;;;;;;;3.10;2.80;;;10.10;45.00;;;;;;5019583;28;20496;-45
2021/04/27 00:53:37;;;;;;;3.97;3.03;;;10.00;45.30;;;;;;5004585;28;20463;-45
2021/04/27 00:56:03;;;;;;;4.30;3.20;;;10.00;45.20;;;;;;5008639;28;21188;-45
2021/04/27 00:58:31;;;;;;;3.80;3.07;;;10.00;45.10;;;;;;5004832;28;20464;-45
2021/04/27 01:00:58;;;;;;;3.07;2.83;;;10.00;45.30;;;;;;5007801;28;20548;-45
2021/04/27 01:03:24;;;;;;;3.40;3.10;;;9.90;45.40;;;;;;5019067;28;20476;-45
2021/04/27 01:05:51;;;;;;;6.63;3.47;;;9.90;45.40;;;;;;5004646;28;20457;-45
2021/04/27 01:08:44;;;;;;;4.00;2.70;;;9.90;45.30;;;;;;5005443;28;20464;-45
2021/04/27 01:11:32;;;;;;;3.57;3.27;;;9.90;45.50;;;;;;5002395;28;20994;-45
2021/04/27 01:14:33;;;;;;;3.67;3.37;;;9.80;45.30;;;;;;5015811;28;20460;-45
2021/04/27 01:17:05;;;;;;;5.17;3.40;;;9.70;45.40;;;;;;5005653;28;20489;-45
2021/04/27 01:19:56;;;;;;;4.80;2.83;;;9.70;45.40;;;;;;5006472;28;20734;-46
2021/04/27 01:22:51;;;;;;;3.63;2.90;;;9.70;45.40;;;;;;5006824;28;20765;-45
2021/04/27 01:25:45;;;;;;;3.03;2.67;;;9.70;45.40;;;;;;5004713;28;20547;-45
2021/04/27 01:28:13;;;;;;;3.53;3.00;;;9.60;45.50;;;;;;5020881;28;20815;-45
2021/04/27 01:30:42;;;;;;;5.40;3.50;;;9.70;46.00;;;;;;5006048;28;20893;-45
2021/04/27 01:33:25;;;;;;;4.03;3.17;;;9.60;45.80;;;;;;5005722;28;20532;-45
2021/04/27 01:35:52;;;;;;;3.53;3.03;;;9.70;45.50;;;;;;5004055;28;20835;-45
2021/04/27 01:38:21;;;;;;;4.03;2.87;;;9.60;45.20;;;;;;5005832;28;20471;-45
2021/04/27 01:40:48;;;;;;;2.97;2.30;;;9.60;45.10;;;;;;5002055;28;20475;-45
2021/04/27 01:43:15;;;;;;;4.70;2.97;;;9.60;45.20;;;;;;5003791;28;20461;-45
2021/04/27 01:45:41;;;;;;;3.37;3.07;;;9.60;45.50;;;;;;5008325;28;20535;-45
2021/04/27 01:48:08;;;;;;;3.37;2.30;;;9.50;45.30;;;;;;5003572;28;20456;-45
2021/04/27 01:50:35;;;;;;;3.57;2.50;;;9.50;45.80;;;;;;5023284;28;20823;-45
2021/04/27 01:53:01;;;;;;;3.37;2.83;;;9.50;46.00;;;;;;5003933;28;20460;-45
2021/04/27 01:55:28;;;;;;;5.40;2.90;;;9.50;46.00;;;;;;5021596;28;20460;-45
2021/04/27 01:57:54;;;;;;;3.10;2.90;;;9.50;45.80;;;;;;5006645;28;20470;-45
2021/04/27 02:00:26;;;;;;;3.27;2.30;;;9.50;45.40;;;;;;5003781;28;20543;-45
2021/04/27 02:02:52;;;;;;;6.93;2.40;;;9.40;45.60;;;;;;5005145;28;20919;-45
2021/04/27 02:05:19;;;;;;;3.07;2.30;;;9.40;44.80;;;;;;5001784;28;20476;-45
2021/04/27 02:07:46;;;;;;;2.90;2.60;;;9.40;44.90;;;;;;5008146;28;20460;-45
2021/04/27 02:10:13;;;;;;;2.63;2.43;;;9.40;45.30;;;;;;5007291;28;21019;-46
2021/04/27 02:12:44;;;;;;;5.50;3.20;;;9.40;45.10;;;;;;4999728;28;20457;-45
2021/04/27 02:15:12;;;;;;;3.13;2.47;;;9.40;45.20;;;;;;5000337;28;20473;-45
2021/04/27 02:17:48;;;;;;;3.23;2.93;;;9.40;45.50;;;;;;5006707;28;20872;-45
2021/04/27 02:20:16;;;;;;;3.57;2.60;;;9.40;45.40;;;;;;5003676;28;20492;-45
2021/04/27 02:22:46;;;;;;;2.97;2.77;;;9.40;45.10;;;;;;5018084;28;20470;-45
2021/04/27 02:25:14;;;;;;;2.93;2.73;;;9.40;45.40;;;;;;5006381;28;20456;-45
2021/04/27 02:27:42;;;;;;;7.40;3.10;;;9.30;45.00;;;;;;5004392;28;21016;-46
2021/04/27 02:30:11;;;;;;;2.97;2.60;;;9.30;45.00;;;;;;5008019;28;20495;-45
2021/04/27 02:32:39;;;;;;;3.33;2.50;;;9.20;45.10;;;;;;5017293;28;20452;-45
2021/04/27 02:35:08;;;;;;;2.97;2.67;;;9.20;45.40;;;;;;5019162;28;20459;-45
2021/04/27 02:37:37;;;;;;;5.87;3.33;;;9.20;45.70;;;;;;5023556;28;20467;-45
2021/04/27 02:40:05;;;;;;;3.77;2.63;;;9.20;45.80;;;;;;5001814;28;20459;-45
2021/04/27 02:42:34;;;;;;;3.57;3.00;;;9.20;46.00;;;;;;5004549;28;20467;-45
2021/04/27 02:45:01;;;;;;;4.13;2.70;;;9.20;45.40;;;;;;5000199;28;21110;-45
2021/04/27 02:47:27;;;;;;;5.00;2.70;;;9.10;45.30;;;;;;5002922;28;20468;-45
2021/04/27 02:49:53;;;;;;;2.97;2.77;;;9.10;45.40;;;;;;5003180;28;20492;-45
2021/04/27 02:52:20;;;;;;;2.10;1.90;;;9.10;45.60;;;;;;5003588;28;20464;-45
2021/04/27 02:54:46;;;;;;;3.87;2.00;;;9.10;45.50;;;;;;5003444;28;20460;-45
2021/04/27 02:57:12;;;;;;;2.20;2.00;;;9.00;45.80;;;;;;5005618;28;20684;-45
2021/04/27 02:59:38;;;;;;;2.77;2.33;;;9.00;45.90;;;;;;5002052;28;20504;-45
2021/04/27 03:02:04;;;;;;;4.07;3.13;;;9.10;45.60;;;;;;5003753;28;20469;-45
2021/04/27 03:04:31;;;;;;;2.70;2.50;;;9.00;45.80;;;;;;5002655;28;20842;-45
2021/04/27 03:06:57;;;;;;;6.37;2.73;;;9.10;45.90;;;;;;5004080;28;20455;-45
2021/04/27 03:09:24;;;;;;;2.63;2.43;;;9.00;45.90;;;;;;5006145;28;20452;-45
2021/04/27 03:11:50;;;;;;;6.17;2.53;;;9.00;46.20;;;;;;5002149;28;20844;-45
2021/04/27 03:14:16;;;;;;;5.73;2.30;;;9.00;46.00;;;;;;5020864;28;20560;-45
2021/04/27 03:16:42;;;;;;;2.67;2.37;;;9.00;45.80;;;;;;5000708;28;20479;-45
2021/04/27 03:19:09;;;;;;;2.70;2.50;;;8.90;45.70;;;;;;5023711;28;20523;-45
2021/04/27 03:21:35;;;;;;;4.23;2.77;;;9.00;45.70;;;;;;5036123;28;20463;-45
2021/04/27 03:24:02;;;;;;;3.13;2.23;;;8.90;45.80;;;;;;5007245;28;20456;-45
2021/04/27 03:26:28;;;;;;;2.77;2.57;;;8.90;45.60;;;;;;5003135;28;20488;-45
2021/04/27 03:28:55;;;;;;;2.30;2.10;;;8.90;46.10;;;;;;5006778;28;20461;-45
2021/04/27 03:31:22;;;;;;;5.17;3.73;;;8.90;45.60;;;;;;5018825;28;20497;-45
2021/04/27 03:33:48;;;;;;;3.57;2.40;;;8.90;45.50;;;;;;5007657;28;20460;-45
2021/04/27 03:36:16;;;;;;;2.90;2.60;;;8.80;45.70;;;;;;5004340;28;20464;-45
2021/04/27 03:38:42;;;;;;;2.90;2.50;;;8.80;45.10;;;;;;5002168;28;20467;-45
2021/04/27 03:41:08;;;;;;;2.53;1.73;;;8.80;45.60;;;;;;5003200;28;20472;-45
2021/04/27 03:43:35;;;;;;;1.90;1.80;;;8.70;45.90;;;;;;5007348;28;20987;-45
2021/04/27 03:46:01;;;;;;;3.37;2.00;;;8.70;46.00;;;;;;5003279;28;20466;-45
2021/04/27 03:48:27;;;;;;;3.00;2.70;;;8.70;46.10;;;;;;5006842;28;20583;-45
2021/04/27 03:50:54;;;;;;;2.67;2.07;;;8.70;46.20;;;;;;5004608;28;20488;-45
2021/04/27 03:53:21;;;;;;;4.03;2.40;;;8.70;45.90;;;;;;5000851;28;20460;-45
2021/04/27 03:55:47;;;;;;;2.93;2.73;;;8.70;45.60;;;;;;5004798;28;20465;-45
2021/04/27 03:58:14;;;;;;;1.90;1.70;;;8.70;45.80;;;;;;5005825;28;20544;-45
2021/04/27 04:00:40;;;;;;;2.60;2.00;;;8.70;45.60;;;;;;5007575;28;20461;-45
2021/04/27 04:03:08;;;;;;;3.50;2.27;;;8.70;45.80;;;;;;5006413;28;20468;-45
2021/04/27 04:05:35;;;;;;;4.47;2.60;;;8.70;45.90;;;;;;5005745;28;20460;-45
2021/04/27 04:08:01;;;;;;;6.80;2.77;;;8.70;46.10;;;;;;5010347;28;20949;-45
2021/04/27 04:10:28;;;;;;;4.43;2.00;;;8.60;46.30;;;;;;5004905;28;20523;-45
2021/04/27 04:12:55;;;;;;;4.60;2.60;;;8.60;46.40;;;;;;5005017;28;20551;-45
2021/04/27 04:15:21;;;;;;;5.60;3.00;;;8.60;46.20;;;;;;5006830;28;20647;-45
2021/04/27 04:17:48;;;;;;;3.10;2.30;;;8.60;46.40;;;;;;5006149;28;20808;-45
2021/04/27 04:20:19;;;;;;;2.50;2.30;;;8.60;46.70;;;;;;5008022;28;20475;-45
2021/04/27 04:22:48;;;;;;;2.60;2.40;;;8.70;46.70;;;;;;5008708;28;20472;-45
2021/04/27 04:25:15;;;;;;;3.73;3.27;;;8.60;46.70;;;;;;5008218;28;20493;-45
2021/04/27 04:27:41;;;;;;;2.83;1.90;;;8.60;46.20;;;;;;5009431;28;20859;-45
2021/04/27 04:30:14;;;;;;;2.90;2.70;;;8.60;46.60;;;;;;5006384;28;20484;-45
2021/04/27 04:32:41;;;;;;;4.73;2.47;;;8.60;46.50;;;;;;5005558;28;20455;-45
2021/04/27 04:35:10;;;;;;;4.10;2.83;;;8.60;46.70;;;;;;5005826;28;20461;-45
2021/04/27 04:37:37;;;;;;;4.30;3.57;;;8.60;46.60;;;;;;5010962;28;20447;-45
2021/04/27 04:40:10;;;;;;;4.43;2.60;;;8.60;46.70;;;;;;5010636;28;20464;-45
2021/04/27 04:42:37;;;;;;;2.70;2.20;;;8.60;46.60;;;;;;5009020;28;20462;-45
2021/04/27 04:45:08;;;;;;;4.33;2.60;;;8.60;47.10;;;;;;5006916;28;20459;-45
2021/04/27 04:47:34;;;;;;;3.10;2.73;;;8.70;46.10;;;;;;5009576;28;20449;-45
2021/04/27 04:50:01;;;;;;;3.50;2.93;;;8.60;46.20;;;;;;5001926;28;20507;-45
2021/04/27 04:52:27;;;;;;;2.30;2.10;;;8.70;47.20;;;;;;5008631;28;20865;-45
2021/04/27 04:54:54;;;;;;;3.47;2.30;;;8.70;46.70;;;;;;5006597;28;20555;-45
2021/04/27 04:57:21;;;;;;;3.33;2.60;;;8.70;46.70;;;;;;5009832;28;20821;-45
2021/04/27 04:59:48;;;;;;;3.10;1.97;;;8.70;46.80;;;;;;5007279;28;20458;-45
2021/04/27 05:02:15;;;;;;;3.40;2.27;;;8.80;45.90;;;;;;5005055;28;20464;-45
2021/04/27 05:04:42;;;;;;;3.20;2.53;;;8.80;46.20;;;;;;5009092;28;20460;-45
2021/04/27 05:07:10;;;;;;;3.23;2.57;;;8.70;46.50;;;;;;5007132;28;20535;-45
2021/04/27 05:09:38;;;;;;;3.00;2.80;;;8.80;46.20;;;;;;5039926;28;20483;-45
2021/04/27 05:12:05;;;;;;;2.50;2.07;;;8.90;46.00;;;;;;5009226;28;20858;-45
2021/04/27 05:14:34;;;;;;;3.67;2.67;;;8.90;45.50;;;;;;5023963;28;20449;-45
2021/04/27 05:17:00;;;;;;;3.73;2.60;;;8.90;45.30;;;;;;5009041;28;20567;-45
2021/04/27 05:19:27;;;;;;;6.13;2.50;;;8.90;46.20;;;;;;5008927;28;20551;-45
2021/04/27 05:21:53;;;;;;;3.17;2.40;;;8.90;46.00;;;;;;5008315;28;20868;-45
2021/04/27 05:24:21;;;;;;;7.60;2.50;;;9.00;46.20;;;;;;5007538;28;20490;-45
2021/04/27 05:26:48;;;;;;;3.30;3.00;;;9.00;45.80;;;;;;5008571;28;20774;-45
2021/04/27 05:29:14;;;;;;;3.60;2.30;;;9.00;45.20;;;;;;5019470;28;20487;-45
2021/04/27 05:31:41;;;;;;;3.97;2.33;;;9.00;45.40;;;;;;5009897;28;20488;-45
2021/04/27 05:34:07;;;;;;;2.67;2.13;;;9.00;45.40;;;;;;5025097;28;20544;-44
2021/04/27 05:36:33;;;;;;;3.87;2.00;;;9.00;45.90;;;;;;5010531;28;20547;-45
2021/04/27 05:39:00;;;;;;;3.77;2.50;;;9.10;45.60;;;;;;5006128;28;20459;-45
2021/04/27 05:41:26;;;;;;;6.33;2.77;;;9.10;45.40;;;;;;5008068;28;20555;-44
2021/04/27 05:43:53;;;;;;;3.07;2.47;;;9.10;44.90;;;;;;5006263;28;20464;-45
2021/04/27 05:46:19;;;;;;;3.03;2.73;;;9.10;45.40;;;;;;5009930;28;20455;-44
2021/04/27 05:48:45;;;;;;;3.47;2.67;;;9.20;45.70;;;;;;5007259;28;20457;-45
2021/04/27 05:51:12;;;;;;;5.37;2.57;;;9.30;45.60;;;;;;5008605;28;20563;-44
2021/04/27 05:53:38;;;;;;;2.77;2.57;;;9.30;45.80;;;;;;5021202;28;20953;-45
2021/04/27 05:56:05;;;;;;;3.10;2.90;;;9.30;45.20;;;;;;5006453;28;20464;-45
2021/04/27 05:58:31;;;;;;;3.10;2.60;;;9.30;45.20;;;;;;5008249;28;20975;-45
2021/04/27 06:00:58;;;;;;;4.20;2.17;;;9.30;45.10;;;;;;5007246;28;20452;-45
2021/04/27 06:03:33;;;;;;;1.90;1.77;;;9.30;46.20;;;;;;5005804;28;20904;-45
2021/04/27 06:06:00;;;;;;;3.53;2.60;;;9.40;45.80;;;;;;5007916;28;20464;-44
2021/04/27 06:08:26;;;;;;;6.07;2.23;;;9.40;45.80;;;;;;5023148;28;20452;-44
2021/04/27 06:10:52;;;;;;;4.30;2.53;;;9.50;45.00;;;;;;5009391;28;20492;-45
2021/04/27 06:13:19;;;;;;;2.40;2.20;;;9.50;44.80;;;;;;5008168;28;20675;-45
2021/04/27 06:15:45;;;;;;;3.50;2.43;;;9.50;44.60;;;;;;5007403;28;21180;-45
2021/04/27 06:18:11;;;;;;;3.50;2.30;;;9.50;44.60;;;;;;5008676;28;20515;-45
2021/04/27 06:20:38;;;;;;;4.20;2.30;;;9.50;44.30;;;;;;5008872;28;20448;-45
2021/04/27 06:23:04;;;;;;;4.10;3.10;;;9.60;44.10;;;;;;5018536;28;20464;-44
2021/04/27 06:25:31;;;;;;;4.60;3.27;;;9.70;45.10;;;;;;5002334;28;20464;-45
2021/04/27 06:27:57;;;;;;;5.60;2.73;;;9.70;45.40;;;;;;5005625;28;20456;-45
2021/04/27 06:30:24;;;;;;;4.03;2.50;;;9.80;45.20;;;;;;5001920;28;20472;-45
2021/04/27 06:32:53;;;;;;;3.00;2.63;;;9.80;44.50;;;;;;5020976;28;20452;-45
2021/04/27 06:35:20;;;;;;;2.53;2.33;;;9.90;45.20;;;;;;5021246;28;20456;-44
2021/04/27 06:37:47;;;;;;;2.93;2.63;;;9.90;44.70;;;;;;5004844;28;20453;-45
2021/04/27 06:40:14;;;;;;;3.90;2.50;;;10.00;44.60;;;;;;5007710;28;20456;-45
2021/04/27 06:42:40;;;;;;;4.07;2.57;;;10.00;44.60;;;;;;5004475;28;20456;-45
2021/04/27 06:45:08;;;;;;;3.70;2.60;;;10.10;44.60;;;;;;5003135;28;20461;-44
2021/04/27 06:47:34;;;;;;;5.10;2.63;;;10.20;43.80;;;;;;5002199;28;20456;-45
2021/04/27 06:50:01;;;;;;;4.27;2.90;;;10.30;43.70;;;;;;5004444;28;20961;-45
2021/04/27 06:52:27;;;;;;;4.47;2.60;;;10.40;43.20;;;;;;5001981;28;20519;-45
2021/04/27 06:54:54;;;;;;;4.63;3.07;;;10.50;41.80;;;;;;5003414;28;20469;-45
2021/04/27 06:57:20;;;;;;;5.77;3.20;;;10.60;41.20;;;;;;5004162;28;20460;-45
2021/04/27 06:59:46;;;;;;;3.33;2.60;;;10.80;41.30;;;;;;5001445;28;20456;-45
2021/04/27 07:02:12;;;;;;;7.27;3.20;;;10.90;41.40;;;;;;5006095;28;20461;-45
2021/04/27 07:04:41;;;;;;;3.70;2.80;;;11.10;40.70;;;;;;5018009;28;20474;-45
2021/04/27 07:07:09;;;;;;;3.53;2.50;;;11.30;40.60;;;;;;5003993;28;20473;-44
2021/04/27 07:09:36;;;;;;;7.70;3.00;;;11.40;40.10;;;;;;5003859;28;20978;-45
2021/04/27 07:12:03;;;;;;;12.27;2.60;;;11.60;39.40;;;;;;5006485;28;21203;-45
2021/04/27 07:14:29;;;;;;;3.97;2.50;;;11.70;39.90;;;;;;5007481;28;20449;-45
2021/04/27 07:16:56;;;;;;;3.63;2.87;;;11.80;39.60;;;;;;5006126;28;20929;-45
2021/04/27 07:19:23;;;;;;;3.70;2.60;;;12.00;39.70;;;;;;4997770;28;20706;-45
2021/04/27 07:21:53;;;;;;;3.50;2.60;;;12.10;39.80;;;;;;5002478;28;20957;-45
2021/04/27 07:24:21;;;;;;;3.40;3.10;;;12.20;38.90;;;;;;5001855;28;20811;-45
2021/04/27 07:26:49;;;;;;;4.93;2.77;;;12.30;38.60;;;;;;5003926;28;20461;-45
2021/04/27 07:29:16;;;;;;;4.13;2.33;;;12.40;38.70;;;;;;5005544;28;21031;-45
2021/04/27 07:31:42;;;;;;;3.63;3.33;;;12.60;39.90;;;;;;5003253;28;20492;-45
2021/04/27 07:34:09;;;;;;;9.47;5.20;;;12.70;38.90;;;;;;5018728;28;20866;-45
2021/04/27 07:36:36;;;;;;;3.20;2.90;;;12.90;38.90;;;;;;5032815;28;20481;-45
2021/04/27 07:39:08;;;;;;;3.20;2.90;;;13.00;38.00;;;;;;5001754;28;20954;-48
2021/04/27 07:41:35;;;;;;;4.33;2.73;;;13.20;37.80;;;;;;5007608;28;20460;-48
2021/04/27 07:44:02;;;;;;;5.30;3.23;;;13.30;37.90;;;;;;5019292;28;20472;-48
2021/04/27 07:46:28;;;;;;;5.60;2.97;;;13.40;37.00;;;;;;5003259;28;20474;-48
2021/04/27 07:48:55;;;;;;;3.80;3.20;;;13.50;36.60;;;;;;5003077;28;20506;-48
2021/04/27 07:51:23;;;;;;;5.10;3.40;;;13.60;36.80;;;;;;5001243;28;20558;-48
2021/04/27 07:53:49;;;;;;;3.80;3.20;;;13.80;36.90;;;;;;5002481;28;21062;-48
2021/04/27 07:56:16;;;;;;;3.80;3.50;;;13.90;37.10;;;;;;5015590;28;20472;-48
2021/04/27 07:58:42;;;;;;;5.00;3.10;;;14.00;36.70;;;;;;5005209;28;20472;-48
2021/04/27 08:01:09;;;;;;;2.90;2.70;;;14.10;36.60;;;;;;5006078;28;21063;-48
2021/04/27 08:03:37;;;;;;;5.30;3.57;;;14.30;36.80;;;;;;5006521;28;20985;-48
2021/04/27 08:06:04;;;;;;;5.70;3.03;;;14.40;35.90;;;;;;5003824;28;20467;-48
2021/04/27 08:08:31;;;;;;;6.40;3.17;;;14.50;36.40;;;;;;5001230;28;20475;-48
2021/04/27 08:10:57;;;;;;;3.70;3.33;;;14.60;35.60;;;;;;5002187;28;20499;-48
2021/04/27 08:13:24;;;;;;;3.80;2.97;;;14.80;35.50;;;;;;5017005;28;20536;-48
2021/04/27 08:15:50;;;;;;;5.20;3.20;;;14.90;34.80;;;;;;5003755;28;20480;-47
2021/04/27 08:18:16;;;;;;;11.23;3.00;;;15.00;35.00;;;;;;5019112;28;20463;-48
2021/04/27 08:20:44;;;;;;;6.80;4.13;;;15.20;35.00;;;;;;5003380;28;20460;-48
2021/04/27 08:23:12;;;;;;;3.10;2.80;;;15.30;35.20;;;;;;5002894;28;20460;-48
2021/04/27 08:25:56;;;;;;;5.07;3.27;;;15.40;34.60;;;;;;5002229;28;21007;-48
2021/04/27 08:28:23;;;;;;;6.10;3.87;;;15.60;34.10;;;;;;5003007;28;20537;-48
2021/04/27 08:30:49;;;;;;;7.50;3.30;;;15.70;34.40;;;;;;5004068;28;20840;-48
2021/04/27 08:33:16;;;;;;;4.77;3.57;;;15.90;33.90;;;;;;5004624;28;20463;-48
2021/04/27 08:35:42;;;;;;;5.37;3.40;;;16.00;34.10;;;;;;5024383;28;20491;-48
2021/04/27 08:38:09;;;;;;;3.30;3.00;;;16.20;33.40;;;;;;5007072;28;20444;-48
2021/04/27 08:40:35;;;;;;;5.63;3.27;;;16.30;33.80;;;;;;5005974;28;20452;-48
2021/04/27 08:43:02;;;;;;;3.30;2.90;;;16.50;33.70;;;;;;5024253;28;20550;-48
2021/04/27 08:45:29;;;;;;;5.20;3.23;;;16.70;33.80;;;;;;5009380;28;20464;-48
2021/04/27 08:47:58;;;;;;;6.40;3.80;;;16.90;34.00;;;;;;5011341;28;20452;-48
2021/04/27 08:50:24;;;;;;;3.90;3.60;;;17.10;33.90;;;;;;5008749;28;20444;-48
2021/04/27 08:52:51;;;;;;;7.13;4.10;;;17.20;32.80;;;;;;5009622;28;20506;-48
2021/04/27 08:55:17;;;;;;;8.60;3.40;;;17.40;31.60;;;;;;5008108;28;20457;-48
2021/04/27 08:57:44;;;;;;;3.93;3.60;;;17.70;31.70;;;;;;5008746;28;20540;-48
2021/04/27 09:00:17;;;;;;;5.87;3.93;;;17.90;31.70;;;;;;5018322;28;20459;-48
2021/04/27 09:02:45;;;;;;;7.00;4.07;;;18.20;32.20;;;;;;5006299;28;20867;-48
2021/04/27 09:05:20;;;;;;;4.70;3.93;;;18.60;31.70;;;;;;5010130;28;20563;-48
2021/04/27 09:07:47;;;;;;;6.50;3.97;;;18.90;30.90;;;;;;5004675;28;20455;-49
2021/04/27 09:10:20;;;;;;;7.00;4.20;;;19.30;30.00;;;;;;5023953;28;20999;-49
2021/04/27 09:12:49;;;;;;;4.77;4.03;;;19.60;29.80;;;;;;5009864;28;20496;-48
2021/04/27 09:15:27;;;;;;;4.87;3.63;;;20.00;29.30;;;;;;5004997;28;20492;-48
2021/04/27 09:17:53;;;;;;;4.30;3.73;;;20.50;29.40;;;;;;5011926;28;20484;-48
2021/04/27 09:20:20;;;;;;;5.90;3.60;;;20.80;29.30;;;;;;5006064;28;20551;-48
2021/04/27 09:22:47;;;;;;;6.50;3.57;;;21.10;28.90;;;;;;5008740;28;21915;-48
2021/04/27 09:25:14;;;;;;;4.73;3.80;;;21.40;28.00;;;;;;5006497;28;20464;-48
2021/04/27 09:27:47;;;;;;;3.93;3.60;;;21.70;27.20;;;;;;5007029;28;20566;-48
2021/04/27 09:30:23;;;;;;;4.60;3.70;;;22.00;27.50;;;;;;5008320;28;20464;-48
2021/04/27 09:33:04;;;;;;;5.83;4.17;;;22.30;27.40;;;;;;5009154;28;20831;-48
2021/04/27 09:35:41;;;;;;;4.07;3.47;;;22.70;27.10;;;;;;5022355;28;20833;-48
2021/04/27 09:38:09;;;;;;;6.30;3.73;;;23.10;26.20;;;;;;5009155;28;21021;-48
2021/04/27 09:40:58;;;;;;;4.33;3.40;;;23.40;25.50;;;;;;5006505;28;20555;-49
2021/04/27 09:43:31;;;;;;;4.77;4.10;;;23.70;25.20;;;;;;5009115;28;20547;-49
2021/04/27 09:46:03;;;;;;;6.33;3.53;;;24.00;25.40;;;;;;5018419;28;20491;-48
2021/04/27 09:48:35;;;;;;;6.20;3.87;;;24.30;25.10;;;;;;5008273;28;20805;-48
2021/04/27 09:51:23;;;;;;;6.27;4.27;;;24.60;24.90;;;;;;5008162;28;20472;-49
2021/04/27 09:54:11;;;;;;;4.60;4.13;;;24.90;24.70;;;;;;5005923;28;21059;-49
2021/04/27 09:56:50;;;;;;;4.63;4.17;;;25.20;24.40;;;;;;5008382;28;20466;-49
2021/04/27 09:59:28;;;;;;;5.70;3.77;;;25.40;23.70;;;;;;5008616;28;20447;-50
2021/04/27 10:02:04;;;;;;;4.97;4.37;;;25.50;24.00;;;;;;5007766;28;20452;-48
2021/04/27 10:04:31;;;;;;;9.93;4.40;;;25.70;23.50;;;;;;5004631;28;21196;-48
2021/04/27 10:07:01;;;;;;;9.30;5.37;;;25.90;23.20;;;;;;5006165;28;20968;-48
2021/04/27 10:09:29;;;;;;;7.03;4.53;;;26.00;23.00;;;;;;5004643;28;20491;-49
2021/04/27 10:11:56;;;;;;;4.50;4.10;;;26.10;23.10;;;;;;5006802;28;20530;-48
2021/04/27 10:14:23;;;;;;;7.93;4.53;;;26.20;23.30;;;;;;5008148;28;20448;-48
2021/04/27 10:16:50;;;;;;;5.80;4.33;;;26.30;22.90;;;;;;5010744;28;21010;-49
2021/04/27 10:19:17;;;;;;;7.23;4.70;;;26.40;23.10;;;;;;5007693;28;21084;-48
2021/04/27 10:21:45;;;;;;;6.10;4.50;;;26.50;22.80;;;;;;5008973;28;20872;-48
2021/04/27 10:24:16;;;;;;;5.60;4.20;;;26.50;22.60;;;;;;5008542;28;20495;-48
2021/04/27 10:26:46;;;;;;;5.80;4.73;;;26.40;22.80;;;;;;5009404;28;20591;-49
2021/04/27 10:29:20;;;;;;;5.20;4.00;;;26.10;23.20;;;;;;5010402;28;21012;-48
2021/04/27 10:32:08;;;;;;;7.10;4.80;;;25.80;24.00;;;;;;5008734;28;20479;-49
2021/04/27 10:34:34;;;;;;;5.73;4.43;;;25.60;23.60;;;;;;5006593;28;20483;-49
2021/04/27 10:37:04;;;;;;;11.50;4.63;;;25.20;23.70;;;;;;5010381;28;20941;-49
2021/04/27 10:39:42;;;;;;;5.97;4.50;;;25.00;23.60;;;;;;5008472;28;20494;-48
2021/04/27 10:42:19;;;;;;;4.93;4.43;;;24.90;25.00;;;;;;5007355;28;20886;-48
2021/04/27 10:44:59;;;;;;;6.17;5.20;;;24.70;24.80;;;;;;5002791;28;20460;-48
2021/04/27 10:47:28;;;;;;;6.77;4.40;;;24.50;24.60;;;;;;5007239;28;20475;-49
2021/04/27 10:49:57;;;;;;;6.30;4.80;;;24.30;24.50;;;;;;5007854;28;20995;-48
2021/04/27 10:52:34;;;;;;;6.67;4.80;;;24.00;24.20;;;;;;5005003;28;20501;-47
2021/04/27 10:55:37;;;;;;;5.50;4.80;;;23.80;25.10;;;;;;5005714;28;20455;-44
2021/04/27 10:58:04;;;;;;;5.90;5.30;;;23.50;25.60;;;;;;5005919;28;20511;-44
2021/04/27 11:00:48;;;;;;;5.10;4.60;;;23.40;26.00;;;;;;5004357;28;20467;-44
2021/04/27 11:03:24;;;;;;;6.70;5.77;;;23.10;25.70;;;;;;5005443;28;20544;-44
2021/04/27 11:06:09;;;;;;;5.53;4.40;;;23.00;25.80;;;;;;5007029;28;20470;-44
2021/04/27 11:08:59;;;;;;;6.57;5.17;;;22.90;26.10;;;;;;5006965;28;20464;-44
2021/04/27 11:11:31;;;;;;;5.67;5.10;;;22.80;25.80;;;;;;5004921;28;20488;-44
2021/04/27 11:14:24;;;;;;;4.83;4.40;;;22.80;25.80;;;;;;5005888;28;20828;-44
2021/04/27 11:17:01;;;;;;;5.93;4.73;;;22.70;26.00;;;;;;5006764;28;20476;-44
2021/04/27 11:19:28;;;;;;;10.77;5.43;;;22.70;26.50;;;;;;5003858;28;20470;-44
2021/04/27 11:22:14;;;;;;;7.10;5.30;;;22.70;25.50;;;;;;5002178;28;20456;-45
2021/04/27 11:24:43;;;;;;;6.40;5.50;;;22.60;25.50;;;;;;5003133;28;20825;-45
2021/04/27 11:27:25;;;;;;;5.27;4.67;;;22.60;25.30;;;;;;5002181;28;21044;-44
2021/04/27 11:29:57;;;;;;;6.30;4.43;;;22.50;25.20;;;;;;5008036;28;20456;-44
2021/04/27 11:32:23;;;;;;;7.17;5.40;;;22.30;26.50;;;;;;5007322;28;20491;-45
2021/04/27 11:35:09;;;;;;;6.50;5.33;;;22.30;26.90;;;;;;5006092;28;20450;-44
2021/04/27 11:37:45;;;;;;;8.27;5.50;;;22.20;26.10;;;;;;5022224;28;20566;-45
2021/04/27 11:40:26;;;;;;;5.07;4.47;;;22.20;25.50;;;;;;5008550;28;20432;-45
2021/04/27 11:43:01;;;;;;;6.40;4.63;;;22.10;25.40;;;;;;5006788;28;20447;-44
2021/04/27 11:45:33;;;;;;;9.50;5.00;;;22.00;25.50;;;;;;5006380;28;21056;-44
2021/04/27 11:48:00;;;;;;;6.90;5.33;;;22.00;27.00;;;;;;5022194;28;20457;-44
2021/04/27 11:50:30;;;;;;;7.60;4.60;;;21.90;26.80;;;;;;5010204;28;20963;-44
2021/04/27 11:53:09;;;;;;;5.90;5.37;;;21.80;26.80;;;;;;5007239;28;21012;-44
2021/04/27 11:55:48;;;;;;;4.87;4.47;;;21.90;26.80;;;;;;5007543;28;20452;-44
2021/04/27 11:58:15;;;;;;;8.67;6.40;;;;;;;;;;5004885;28;20558;-44
2021/04/27 12:01:08;;;;;;;6.10;5.10;;;21.80;26.50;;;;;;5020108;28;20885;-44
2021/04/27 12:03:37;;;;;;;5.50;4.63;;;21.70;27.10;;;;;;5007165;28;20499;-45
2021/04/27 12:06:14;;;;;;;6.80;5.43;;;21.70;27.30;;;;;;4999348;28;20453;-45
2021/04/27 12:08:47;;;;;;;6.93;5.30;;;21.70;26.30;;;;;;5007399;28;20990;-45
2021/04/27 12:11:31;;;;;;;5.97;5.40;;;21.80;26.10;;;;;;5009173;28;20507;-45
2021/04/27 12:14:13;;;;;;;7.90;5.03;;;21.90;25.80;;;;;;5003663;28;20487;-45
2021/04/27 12:16:43;;;;;;;5.47;4.93;;;21.90;25.60;;;;;;5009327;28;20486;-45
2021/04/27 12:19:16;;;;;;;5.83;5.33;;;21.90;26.90;;;;;;5013531;28;20451;-45
2021/04/27 12:22:03;;;;;;;6.17;5.57;;;22.00;27.20;;;;;;5007530;28;20460;-44
2021/04/27 12:24:37;;;;;;;7.27;5.33;;;22.10;27.10;;;;;;5008899;28;20520;-45
2021/04/27 12:27:10;;;;;;;7.03;5.10;;;22.10;26.70;;;;;;5009459;28;20459;-44
2021/04/27 12:29:40;;;;;;;6.63;4.90;;;22.20;25.00;;;;;;5008869;28;20464;-44
2021/04/27 12:32:12;;;;;;;5.33;4.70;;;22.10;25.50;;;;;;5010212;28;20484;-45
2021/04/27 12:35:02;;;;;;;7.10;5.30;;;22.20;25.50;;;;;;5010434;28;20791;-46
2021/04/27 12:37:32;;;;;;;7.10;5.00;;;22.10;25.70;;;;;;5009132;28;20551;-46
2021/04/27 12:40:18;;;;;;;5.00;4.50;;;22.10;25.60;;;;;;5008080;28;20452;-45
2021/04/27 12:42:46;;;;;;;10.90;5.17;;;22.10;25.20;;;;;;5009990;28;20440;-45
2021/04/27 12:45:13;;;;;;;5.90;4.60;;;22.10;25.20;;;;;;5010311;28;20455;-45
2021/04/27 12:47:39;;;;;;;9.53;5.33;;;22.10;25.00;;;;;;5009537;28;20894;-44
2021/04/27 12:50:18;;;;;;;6.90;4.43;;;22.10;25.70;;;;;;5010851;28;20550;-44
2021/04/27 12:53:01;;;;;;;5.33;4.83;;;22.10;27.20;;;;;;5007734;28;20490;-44
2021/04/27 12:55:33;;;;;;;7.30;5.00;;;22.10;27.10;;;;;;5010366;28;20535;-44
2021/04/27 12:58:10;;;;;;;5.63;4.37;;;22.20;25.70;;;;;;5005830;28;20957;-46
2021/04/27 13:00:47;;;;;;;6.77;5.60;;;22.20;25.70;;;;;;5008033;28;20543;-46
2021/04/27 13:03:15;;;;;;;9.20;6.40;;;22.20;26.10;;;;;;5006365;28;20461;-45
2021/04/27 13:05:42;;;;;;;6.67;5.90;;;22.20;25.30;;;;;;5020840;28;20471;-45